Alcalde, New Mexico
Current Conditions -  °F | °C
As of 5:15 AM on Thursday 18 Dec 2014 (Local Time) from KLAM Reporting Station
Scattered Clouds Scattered Clouds  
Wind Chill: 29°   Ceiling: Unl
Heat Index: 29°   Visibility: 10mi
Dew Point: 26°   Wind: 3mph
Humidity: 88%   Direction: 290°WNW
Pressure: 30.1"   Gusts: NA
Location:  36.09°N, 106.06°W
Report Text: KLAM 181215Z AUTO 29003KT 10SM SCT015 SCT020 M01/M03 A3010 RMK AO2 T10151033
Loading
Personal Weather Stations






























Interactive Weather Map New forecast layout! Learn more

10-Day Weather Forecast

Advertisements
Track Severe Weather on mobile